Time;durP1;ratioP1;P1;durP2;ratioP2;P2;SDS_P1;SDS_P2;PMS_P1;PMS_P2;Temp;Humidity;BMP_temperature;BMP_pressure;BME280_temperature;BME280_humidity;BME280_pressure;Samples;Min_cycle;Max_cycle;Signal;HPM_P1;HPM_P2
2023/10/03 00:00:28;;;;;;;46.25;26.27;;;17.70;99.90;;;;;;5029855;28;20050;-80
2023/10/03 00:02:57;;;;;;;49.90;25.65;;;17.70;99.90;;;;;;5066453;28;20475;-80
2023/10/03 00:05:28;;;;;;;55.65;27.45;;;17.70;99.90;;;;;;5047966;28;20048;-80
2023/10/03 00:07:54;;;;;;;49.92;26.15;;;17.70;99.90;;;;;;5064964;28;20045;-80
2023/10/03 00:10:21;;;;;;;54.53;26.58;;;17.70;99.90;;;;;;5064116;28;20055;-80
2023/10/03 00:12:51;;;;;;;47.90;24.88;;;17.60;99.90;;;;;;5063035;28;20053;-81
2023/10/03 00:15:18;;;;;;;56.33;27.02;;;17.60;99.90;;;;;;5055964;28;20553;-79
2023/10/03 00:17:44;;;;;;;45.55;25.15;;;17.60;99.90;;;;;;5049827;28;20124;-80
2023/10/03 00:20:12;;;;;;;52.05;25.85;;;17.60;99.90;;;;;;5060055;28;20557;-80
2023/10/03 00:22:39;;;;;;;52.00;27.08;;;17.60;99.90;;;;;;5056050;28;20048;-79
2023/10/03 00:25:21;;;;;;;45.30;24.40;;;17.60;99.90;;;;;;5057715;28;20029;-80
2023/10/03 00:27:50;;;;;;;47.28;25.45;;;17.70;99.90;;;;;;5056316;28;20029;-81
2023/10/03 00:30:19;;;;;;;50.65;25.30;;;17.50;99.90;;;;;;5036317;28;20600;-80
2023/10/03 00:32:45;;;;;;;52.38;26.15;;;17.50;99.90;;;;;;5057617;28;20048;-81
2023/10/03 00:35:12;;;;;;;51.53;26.70;;;17.50;99.90;;;;;;5058186;28;20076;-79
2023/10/03 00:37:39;;;;;;;50.58;24.90;;;17.50;99.90;;;;;;5055965;28;20057;-80
2023/10/03 00:43:07;;;;;;;52.83;25.80;;;17.50;99.90;;;;;;5053129;28;21758;-81
2023/10/03 00:45:34;;;;;;;50.70;25.55;;;17.50;99.90;;;;;;5053025;28;20038;-80
2023/10/03 00:48:07;;;;;;;52.20;25.65;;;17.40;99.90;;;;;;5053082;28;20037;-80
2023/10/03 00:50:37;;;;;;;47.95;26.70;;;17.40;99.90;;;;;;5058249;28;20044;-81
2023/10/03 00:53:09;;;;;;;48.03;26.38;;;17.40;99.90;;;;;;5054749;28;20045;-81
2023/10/03 00:55:38;;;;;;;49.30;25.52;;;17.40;99.90;;;;;;5040838;28;20037;-80
2023/10/03 01:00:50;;;;;;;49.80;25.45;;;17.40;99.90;;;;;;5057477;28;20546;-80
2023/10/03 01:03:32;;;;;;;;;;;17.40;99.90;;;;;;5059145;28;20040;-82
2023/10/03 01:06:07;;;;;;;49.45;26.80;;;17.30;99.90;;;;;;5058875;28;19944;-81
2023/10/03 01:08:37;;;;;;;46.08;25.08;;;17.30;99.90;;;;;;5043956;28;20045;-79
2023/10/03 01:11:13;;;;;;;46.72;24.13;;;17.30;99.90;;;;;;5057610;28;20094;-80
2023/10/03 01:13:39;;;;;;;52.50;26.02;;;17.30;99.90;;;;;;5060727;28;20043;-81
2023/10/03 01:16:05;;;;;;;55.05;25.80;;;17.30;99.90;;;;;;5060903;28;20127;-80
2023/10/03 01:18:32;;;;;;;50.67;26.13;;;17.30;99.90;;;;;;5060703;28;20110;-80
2023/10/03 01:21:02;;;;;;;51.13;26.38;;;17.30;99.90;;;;;;5055094;28;20045;-78
2023/10/03 01:23:39;;;;;;;49.67;25.33;;;17.30;99.90;;;;;;5056545;28;20053;-80
2023/10/03 01:26:05;;;;;;;47.03;25.17;;;17.20;99.90;;;;;;5056542;28;20075;-80
2023/10/03 01:28:31;;;;;;;51.50;25.20;;;17.30;99.90;;;;;;5059530;28;20040;-79
2023/10/03 01:30:57;;;;;;;43.83;22.15;;;17.20;99.90;;;;;;5060688;28;20041;-80
2023/10/03 01:33:26;;;;;;;44.90;23.20;;;17.30;99.90;;;;;;5056589;28;20178;-80
2023/10/03 01:35:56;;;;;;;51.67;24.15;;;17.30;99.90;;;;;;5060887;28;20041;-81
2023/10/03 01:38:28;;;;;;;48.78;24.33;;;17.30;99.90;;;;;;5056356;28;20087;-79
2023/10/03 01:40:57;;;;;;;44.75;23.25;;;17.30;99.90;;;;;;5064323;28;20071;-81
2023/10/03 01:43:23;;;;;;;42.50;22.58;;;17.20;99.90;;;;;;5062477;28;20037;-81
2023/10/03 01:45:49;;;;;;;44.42;22.95;;;17.20;99.90;;;;;;5062366;28;20106;-79
2023/10/03 01:48:17;;;;;;;47.10;22.92;;;17.20;99.90;;;;;;5041808;28;20037;-80
2023/10/03 01:50:47;;;;;;;44.50;22.08;;;17.20;99.90;;;;;;5059480;28;20048;-81
2023/10/03 01:53:13;;;;;;;45.00;23.50;;;17.20;99.90;;;;;;5065725;28;20045;-81
2023/10/03 01:55:39;;;;;;;44.53;21.90;;;17.20;99.90;;;;;;5065588;28;20053;-80
2023/10/03 01:58:06;;;;;;;47.17;23.50;;;17.20;99.90;;;;;;5051100;28;20053;-79
2023/10/03 02:00:34;;;;;;;43.28;21.58;;;17.20;99.90;;;;;;5064606;28;20109;-80
2023/10/03 02:03:05;;;;;;;43.55;22.00;;;17.30;99.90;;;;;;5069215;28;20049;-79
2023/10/03 02:05:42;;;;;;;40.97;21.70;;;17.20;99.90;;;;;;5070107;28;20052;-80
2023/10/03 02:08:17;;;;;;;43.47;21.03;;;17.30;99.90;;;;;;5069119;28;20041;-79
2023/10/03 02:10:51;;;;;;;40.30;20.23;;;17.20;99.90;;;;;;5070887;28;20064;-79
2023/10/03 02:13:18;;;;;;;40.00;20.52;;;17.20;99.90;;;;;;5072658;28;20041;-80
2023/10/03 02:15:46;;;;;;;38.17;19.02;;;17.30;99.90;;;;;;5070414;28;20157;-82
2023/10/03 02:18:13;;;;;;;39.70;19.75;;;17.30;99.90;;;;;;5063262;28;20605;-82
2023/10/03 02:20:51;;;;;;;38.08;19.45;;;17.30;99.90;;;;;;5059737;28;20037;-80
2023/10/03 02:23:22;;;;;;;42.63;19.05;;;17.20;99.90;;;;;;5059880;28;20044;-82
2023/10/03 02:25:53;;;;;;;41.25;20.95;;;17.30;99.90;;;;;;5056700;28;20037;-81
2023/10/03 02:28:20;;;;;;;40.42;18.30;;;17.30;99.90;;;;;;5056239;28;20110;-80
2023/10/03 02:30:48;;;;;;;43.20;19.42;;;17.30;99.90;;;;;;5058585;28;20098;-79
2023/10/03 02:33:15;;;;;;;43.30;19.98;;;17.30;99.90;;;;;;5058896;28;20037;-79
2023/10/03 02:35:43;;;;;;;42.60;19.48;;;17.30;99.90;;;;;;5043792;28;20132;-83
2023/10/03 02:38:10;;;;;;;;;;;17.30;99.90;;;;;;5060359;28;20052;-79
2023/10/03 02:40:40;;;;;;;37.63;19.08;;;17.30;99.90;;;;;;5065014;28;19977;-80
2023/10/03 02:43:06;;;;;;;38.80;18.52;;;17.30;99.90;;;;;;5061215;28;20044;-79
2023/10/03 02:45:32;;;;;;;39.67;19.00;;;17.30;99.90;;;;;;5045104;28;20059;-80
2023/10/03 02:48:03;;;;;;;38.55;19.13;;;17.40;99.90;;;;;;5062488;28;20096;-79
2023/10/03 02:50:33;;;;;;;43.03;19.50;;;17.40;99.90;;;;;;5064108;28;20075;-80
2023/10/03 02:53:00;;;;;;;37.28;18.42;;;17.40;99.90;;;;;;5065218;28;20353;-81
2023/10/03 02:55:25;;;;;;;39.88;18.95;;;17.40;99.90;;;;;;5065990;28;20429;-79
2023/10/03 02:57:51;;;;;;;36.40;17.65;;;17.40;99.90;;;;;;5067281;28;20175;-79
2023/10/03 03:00:19;;;;;;;37.55;16.92;;;17.40;99.90;;;;;;5063045;28;20048;-80
2023/10/03 03:02:50;;;;;;;37.67;18.02;;;17.50;99.90;;;;;;5068470;28;20052;-81
2023/10/03 03:05:17;;;;;;;43.53;17.65;;;17.50;99.90;;;;;;5063385;28;20055;-82
2023/10/03 03:07:44;;;;;;;35.67;17.67;;;17.50;99.90;;;;;;5063116;28;20056;-80
2023/10/03 03:10:13;;;;;;;36.15;17.40;;;17.50;99.90;;;;;;5058455;28;20064;-79
2023/10/03 03:12:40;;;;;;;36.40;17.88;;;17.60;99.90;;;;;;5052733;28;20068;-79
2023/10/03 03:15:07;;;;;;;40.75;18.48;;;17.60;99.90;;;;;;5044817;28;20056;-82
2023/10/03 03:17:33;;;;;;;37.47;18.05;;;17.60;99.90;;;;;;5051242;28;20045;-81
2023/10/03 03:20:08;;;;;;;39.30;17.83;;;17.60;99.90;;;;;;5061451;28;20051;-80
2023/10/03 03:22:34;;;;;;;41.55;17.45;;;17.60;99.90;;;;;;5047028;28;20045;-80
2023/10/03 03:25:00;;;;;;;41.78;18.60;;;17.70;99.90;;;;;;5057590;28;20442;-80
2023/10/03 03:27:26;;;;;;;38.80;17.38;;;17.60;99.90;;;;;;5056670;28;20045;-81
2023/10/03 03:30:33;;;;;;;38.13;17.58;;;17.70;99.90;;;;;;5057238;28;20170;-79
2023/10/03 03:32:58;;;;;;;37.40;17.40;;;17.80;99.90;;;;;;5051559;28;20059;-79
2023/10/03 03:35:24;;;;;;;36.50;17.15;;;17.70;99.90;;;;;;5053591;28;20144;-80
2023/10/03 03:37:57;;;;;;;38.63;18.05;;;17.70;99.90;;;;;;5049208;28;20122;-80
2023/10/03 03:40:29;;;;;;;37.47;17.33;;;17.70;99.90;;;;;;5054936;28;20041;-80
2023/10/03 03:42:58;;;;;;;34.90;16.60;;;17.70;99.90;;;;;;5057850;28;20049;-79
2023/10/03 03:45:25;;;;;;;35.45;16.95;;;17.90;99.90;;;;;;5063418;28;20052;-80
2023/10/03 03:47:55;;;;;;;36.15;16.42;;;17.70;99.90;;;;;;5055164;28;20483;-79
2023/10/03 03:50:31;;;;;;;36.65;17.67;;;17.80;99.90;;;;;;5056949;28;20043;-81
2023/10/03 03:52:59;;;;;;;33.45;16.40;;;17.70;99.90;;;;;;5042931;28;20048;-79
2023/10/03 03:55:29;;;;;;;33.70;16.92;;;17.70;99.90;;;;;;5056212;28;20044;-79
2023/10/03 03:58:18;;;;;;;34.10;17.17;;;17.80;99.90;;;;;;5057248;28;20086;-80
2023/10/03 04:00:50;;;;;;;32.67;16.27;;;17.70;99.90;;;;;;5039091;28;20500;-80
2023/10/03 04:03:17;;;;;;;35.95;16.63;;;17.80;99.90;;;;;;5046765;28;20052;-81
2023/10/03 04:05:43;;;;;;;32.17;16.35;;;17.80;99.90;;;;;;5038843;28;20418;-80
2023/10/03 04:08:09;;;;;;;34.83;16.00;;;17.80;99.90;;;;;;5039141;28;20037;-80
2023/10/03 04:10:37;;;;;;;34.35;15.50;;;17.80;99.90;;;;;;5059470;28;20033;-79
2023/10/03 04:13:10;;;;;;;35.17;15.65;;;17.80;99.90;;;;;;5039283;28;20053;-79
2023/10/03 04:15:39;;;;;;;31.17;16.25;;;17.80;99.90;;;;;;5037364;28;20076;-80
2023/10/03 04:18:09;;;;;;;36.95;16.35;;;17.80;99.90;;;;;;5050978;28;20352;-79
2023/10/03 04:20:35;;;;;;;35.88;16.33;;;17.80;99.90;;;;;;5056807;28;20495;-79
2023/10/03 04:23:03;;;;;;;31.05;15.20;;;17.80;99.90;;;;;;5048843;28;20072;-80
2023/10/03 04:25:30;;;;;;;35.20;17.08;;;17.80;99.90;;;;;;5039561;28;20108;-81
2023/10/03 04:28:00;;;;;;;32.50;15.63;;;17.80;99.90;;;;;;5053209;28;20073;-79
2023/10/03 04:30:27;;;;;;;33.28;15.20;;;17.90;99.90;;;;;;5060701;28;20041;-81
2023/10/03 04:32:55;;;;;;;33.75;16.63;;;17.80;99.90;;;;;;5062412;28;20060;-81
2023/10/03 04:35:22;;;;;;;35.58;15.77;;;17.90;99.90;;;;;;5044980;28;20041;-80
2023/10/03 04:37:51;;;;;;;34.40;16.67;;;17.90;99.90;;;;;;5041335;28;20053;-81
2023/10/03 04:40:22;;;;;;;34.80;16.10;;;17.90;99.90;;;;;;5058902;28;20134;-79
2023/10/03 04:42:55;;;;;;;30.88;15.77;;;17.90;99.90;;;;;;5041689;28;20144;-80
2023/10/03 04:45:22;;;;;;;32.80;16.23;;;17.90;99.90;;;;;;5059502;28;20041;-79
2023/10/03 04:47:48;;;;;;;33.88;16.30;;;18.00;99.90;;;;;;5060530;28;20043;-80
2023/10/03 04:50:25;;;;;;;32.88;15.25;;;18.00;99.90;;;;;;5059588;28;20060;-79
2023/10/03 04:52:54;;;;;;;39.58;16.05;;;18.00;99.90;;;;;;5060194;28;20049;-80
2023/10/03 04:55:22;;;;;;;33.30;15.30;;;18.10;99.90;;;;;;5060459;28;20041;-79
2023/10/03 04:57:52;;;;;;;32.03;15.32;;;18.10;99.90;;;;;;5054255;28;20424;-79
2023/10/03 05:00:19;;;;;;;32.53;15.35;;;18.20;99.90;;;;;;5050549;28;20045;-80
2023/10/03 05:02:49;;;;;;;29.08;15.10;;;18.20;99.90;;;;;;5061753;28;20045;-79
2023/10/03 05:05:22;;;;;;;29.13;14.90;;;18.30;99.90;;;;;;5060086;28;20072;-80
2023/10/03 05:07:49;;;;;;;31.55;15.25;;;18.30;99.90;;;;;;5053974;28;20041;-80
2023/10/03 05:10:17;;;;;;;36.47;16.07;;;18.30;99.90;;;;;;5063881;28;20127;-80
2023/10/03 05:12:47;;;;;;;32.45;15.15;;;18.40;99.90;;;;;;5061762;28;20303;-81
2023/10/03 05:15:14;;;;;;;36.00;14.93;;;18.40;99.90;;;;;;5060062;28;20044;-80
2023/10/03 05:17:48;;;;;;;32.42;14.90;;;18.60;99.90;;;;;;5042011;28;20037;-80
2023/10/03 05:20:18;;;;;;;31.50;14.50;;;18.50;99.90;;;;;;5059845;28;20041;-81
2023/10/03 05:22:47;;;;;;;32.80;15.20;;;18.50;99.90;;;;;;5060850;28;20048;-79
2023/10/03 05:25:18;;;;;;;33.70;15.43;;;18.50;99.90;;;;;;5047248;28;20092;-80
2023/10/03 05:27:49;;;;;;;28.77;14.63;;;18.50;99.90;;;;;;5052765;28;20045;-80
2023/10/03 05:30:15;;;;;;;34.47;14.35;;;18.50;99.90;;;;;;5058971;28;20049;-81
2023/10/03 05:32:42;;;;;;;32.45;14.70;;;18.60;99.90;;;;;;5061864;28;20036;-78
2023/10/03 05:35:09;;;;;;;32.55;13.88;;;18.60;99.90;;;;;;5061432;28;20047;-80
2023/10/03 05:37:39;;;;;;;30.23;14.07;;;18.60;99.90;;;;;;5068515;28;20052;-80
2023/10/03 05:40:15;;;;;;;34.95;14.07;;;18.70;99.90;;;;;;5067759;28;20063;-80
2023/10/03 05:42:43;;;;;;;32.40;14.30;;;18.70;99.90;;;;;;5064667;28;20052;-79
2023/10/03 05:45:12;;;;;;;35.70;14.68;;;18.70;99.90;;;;;;5049068;28;20045;-80
2023/10/03 05:47:45;;;;;;;34.20;15.32;;;18.70;99.90;;;;;;5065577;28;20081;-80
2023/10/03 05:50:23;;;;;;;40.92;15.98;;;18.80;99.90;;;;;;5063953;28;20050;-80
2023/10/03 05:52:49;;;;;;;37.28;14.63;;;18.80;99.90;;;;;;5046904;28;20041;-81
2023/10/03 05:55:16;;;;;;;41.10;15.40;;;18.90;99.90;;;;;;5058705;28;20041;-80
2023/10/03 05:57:42;;;;;;;36.95;15.77;;;18.90;99.90;;;;;;5048095;28;20136;-79
2023/10/03 06:00:17;;;;;;;36.03;14.60;;;18.90;99.90;;;;;;5063405;28;20044;-80
2023/10/03 06:02:50;;;;;;;35.65;14.60;;;18.90;99.90;;;;;;5064037;28;20056;-80
2023/10/03 06:05:16;;;;;;;31.38;14.60;;;18.90;99.90;;;;;;5063615;28;20064;-80
2023/10/03 06:07:42;;;;;;;36.72;16.33;;;18.90;99.90;;;;;;5062705;28;20037;-80
2023/10/03 06:10:10;;;;;;;34.90;14.93;;;18.90;99.90;;;;;;5068654;28;20041;-80
2023/10/03 06:12:38;;;;;;;38.88;14.68;;;19.00;99.90;;;;;;5050712;28;20060;-79
2023/10/03 06:15:05;;;;;;;38.38;15.40;;;18.90;99.90;;;;;;5067305;28;20092;-80
2023/10/03 06:17:32;;;;;;;39.67;15.27;;;18.90;99.90;;;;;;5068368;28;20049;-81
2023/10/03 06:19:58;;;;;;;41.28;15.50;;;18.90;99.90;;;;;;5069566;28;20088;-80
2023/10/03 06:22:23;;;;;;;39.55;15.70;;;19.00;99.90;;;;;;5050181;28;20045;-81
2023/10/03 06:24:50;;;;;;;31.92;14.98;;;19.00;99.90;;;;;;5065176;28;20430;-82
2023/10/03 06:27:18;;;;;;;36.60;14.23;;;19.00;99.90;;;;;;5066251;28;20405;-80
2023/10/03 06:29:44;;;;;;;42.53;15.57;;;19.00;99.90;;;;;;5067015;28;20134;-81
2023/10/03 06:32:10;;;;;;;40.63;14.20;;;19.00;99.90;;;;;;5050230;28;20049;-80
2023/10/03 06:34:36;;;;;;;34.20;14.48;;;19.00;99.90;;;;;;5068276;28;20041;-80
2023/10/03 06:37:04;;;;;;;32.40;14.35;;;19.00;99.90;;;;;;5048465;28;20049;-81
2023/10/03 06:39:30;;;;;;;36.60;14.52;;;19.00;99.90;;;;;;5066878;28;20048;-80
2023/10/03 06:41:59;;;;;;;31.77;13.40;;;19.00;99.90;;;;;;5069931;28;20105;-81
2023/10/03 06:44:25;;;;;;;32.80;13.85;;;19.00;99.90;;;;;;5058914;28;20041;-80
2023/10/03 06:46:52;;;;;;;37.15;14.10;;;19.00;99.90;;;;;;5066167;28;20052;-80
2023/10/03 06:49:19;;;;;;;32.60;13.50;;;19.00;99.90;;;;;;5047172;28;20048;-81
2023/10/03 06:51:45;;;;;;;33.58;12.50;;;18.90;99.90;;;;;;5056174;28;20049;-81
2023/10/03 06:54:11;;;;;;;26.25;11.18;;;18.90;99.90;;;;;;5063785;28;20037;-81
2023/10/03 06:56:41;;;;;;;34.22;13.15;;;18.90;99.90;;;;;;5063010;28;20041;-80
2023/10/03 06:59:10;;;;;;;25.48;10.65;;;18.90;99.90;;;;;;5060457;28;20044;-81
2023/10/03 07:01:37;;;;;;;35.88;10.85;;;18.90;99.90;;;;;;5059940;28;20210;-83
2023/10/03 07:04:07;;;;;;;28.42;10.35;;;18.80;99.90;;;;;;5042744;28;20056;-80
2023/10/03 07:06:34;;;;;;;21.80;9.38;;;18.80;99.90;;;;;;5052489;28;20541;-80
2023/10/03 07:09:01;;;;;;;22.83;8.73;;;18.70;99.90;;;;;;5056143;28;20472;-82
2023/10/03 07:11:28;;;;;;;23.13;9.38;;;18.60;99.90;;;;;;5048756;28;20461;-81
2023/10/03 07:13:54;;;;;;;32.43;9.90;;;18.50;99.90;;;;;;5047452;28;20056;-79
2023/10/03 07:16:20;;;;;;;24.52;9.18;;;18.50;99.90;;;;;;5056479;28;20765;-80
2023/10/03 07:18:46;;;;;;;26.67;9.90;;;18.40;99.90;;;;;;5057046;28;20049;-79
2023/10/03 07:21:11;;;;;;;24.15;9.38;;;18.30;99.90;;;;;;5057425;28;20079;-81
2023/10/03 07:23:39;;;;;;;22.73;8.20;;;18.30;99.90;;;;;;5059217;28;20116;-79
2023/10/03 07:26:04;;;;;;;24.75;9.30;;;18.20;99.90;;;;;;5057325;28;20064;-80
2023/10/03 07:28:32;;;;;;;24.33;9.48;;;18.10;99.90;;;;;;5058803;28;20471;-81
2023/10/03 07:30:57;;;;;;;31.83;10.40;;;18.20;99.90;;;;;;5057857;28;20041;-80
2023/10/03 07:33:23;;;;;;;30.20;11.00;;;18.20;99.90;;;;;;5056501;28;20166;-80
2023/10/03 07:35:49;;;;;;;32.65;11.20;;;18.20;99.90;;;;;;5056933;28;20049;-79
2023/10/03 07:38:18;;;;;;;28.15;9.30;;;18.20;99.90;;;;;;5057539;28;20100;-79
2023/10/03 07:40:44;;;;;;;26.80;8.40;;;18.10;99.90;;;;;;5056772;28;20399;-80
2023/10/03 07:43:12;;;;;;;25.98;8.02;;;18.10;99.90;;;;;;5056555;28;20055;-80
2023/10/03 07:45:45;;;;;;;21.67;7.78;;;18.10;99.90;;;;;;5058272;28;20076;-80
2023/10/03 07:48:12;;;;;;;26.95;7.45;;;18.00;99.90;;;;;;5057149;28;20363;-78
2023/10/03 07:50:37;;;;;;;25.85;7.07;;;18.00;99.90;;;;;;5058563;28;20045;-80
2023/10/03 07:53:04;;;;;;;27.38;7.97;;;17.90;99.90;;;;;;5057756;28;20037;-82
2023/10/03 07:55:35;;;;;;;23.20;7.10;;;17.80;99.90;;;;;;5058545;28;20109;-81
2023/10/03 07:58:01;;;;;;;26.77;7.00;;;18.20;99.90;;;;;;5057727;28;20518;-79
2023/10/03 08:00:26;;;;;;;22.13;6.28;;;17.80;99.90;;;;;;5058016;28;20053;-81
2023/10/03 08:02:52;;;;;;;17.88;5.45;;;17.80;99.90;;;;;;5058953;28;20114;-80
2023/10/03 08:05:19;;;;;;;14.65;5.00;;;17.70;99.90;;;;;;5063320;28;20073;-82
2023/10/03 08:07:48;;;;;;;17.00;5.00;;;17.70;99.90;;;;;;5053468;28;20539;-81
2023/10/03 08:10:15;;;;;;;18.98;4.53;;;17.60;99.90;;;;;;5048764;28;20435;-79
2023/10/03 08:12:41;;;;;;;20.08;4.30;;;17.50;99.90;;;;;;5063762;28;20040;-79
2023/10/03 08:15:20;;;;;;;19.45;3.85;;;17.50;99.90;;;;;;5060841;28;20060;-79
2023/10/03 08:17:53;;;;;;;15.38;4.40;;;17.40;99.90;;;;;;5062742;28;20037;-80
2023/10/03 08:20:20;;;;;;;19.52;4.20;;;17.40;99.90;;;;;;5063925;28;20117;-80
2023/10/03 08:22:52;;;;;;;14.77;3.83;;;17.30;99.90;;;;;;5058350;28;20056;-80
2023/10/03 08:25:22;;;;;;;17.25;3.22;;;17.30;99.90;;;;;;5053684;28;20041;-80
2023/10/03 08:27:50;;;;;;;17.73;3.63;;;17.20;99.90;;;;;;5061207;28;20041;-80
2023/10/03 08:30:27;;;;;;;;;;;17.20;99.90;;;;;;5060757;28;20120;-81
2023/10/03 08:33:04;;;;;;;10.95;2.60;;;17.10;99.90;;;;;;5043128;28;20007;-79
2023/10/03 08:35:41;;;;;;;11.98;2.38;;;17.10;99.90;;;;;;5061065;28;20057;-80
2023/10/03 08:38:09;;;;;;;13.00;2.65;;;17.10;99.90;;;;;;5062135;28;20041;-80
2023/10/03 08:40:40;;;;;;;8.65;2.33;;;17.10;99.90;;;;;;5057865;28;20045;-80
2023/10/03 08:43:09;;;;;;;12.05;2.42;;;17.10;99.90;;;;;;5046786;28;20045;-79
2023/10/03 08:45:52;;;;;;;9.90;1.92;;;17.10;99.90;;;;;;5046926;28;20044;-80
2023/10/03 08:48:28;;;;;;;12.40;2.20;;;17.10;99.90;;;;;;5052628;28;20037;-80
2023/10/03 08:50:58;;;;;;;9.40;1.90;;;17.10;99.90;;;;;;5061064;28;20049;-81
2023/10/03 08:53:27;;;;;;;11.02;2.15;;;17.00;99.90;;;;;;5063002;28;20044;-79
2023/10/03 08:55:59;;;;;;;11.75;2.38;;;16.90;99.90;;;;;;5030080;28;20387;-78
2023/10/03 08:58:26;;;;;;;17.30;2.67;;;16.80;99.90;;;;;;5055350;28;20068;-79
2023/10/03 09:00:59;;;;;;;10.20;2.05;;;16.70;99.90;;;;;;5062803;28;20093;-80
2023/10/03 09:03:47;;;;;;;7.70;2.08;;;16.60;99.90;;;;;;5062057;28;20033;-80
2023/10/03 09:06:19;;;;;;;6.22;1.65;;;16.40;99.90;;;;;;5061010;28;20057;-80
2023/10/03 09:08:48;;;;;;;11.23;2.17;;;16.40;99.90;;;;;;5062439;28;20479;-79
2023/10/03 09:11:14;;;;;;;5.68;2.00;;;16.30;99.90;;;;;;5042826;28;20053;-79
2023/10/03 09:13:40;;;;;;;9.48;1.95;;;16.20;99.90;;;;;;5043074;28;20117;-79
2023/10/03 09:16:14;;;;;;;5.22;1.80;;;16.20;99.90;;;;;;5047832;28;20483;-81
2023/10/03 09:18:52;;;;;;;6.20;1.33;;;16.00;99.90;;;;;;5064670;28;20159;-79
2023/10/03 09:21:27;;;;;;;8.45;1.83;;;16.00;99.90;;;;;;5060693;28;20077;-79
2023/10/03 09:24:01;;;;;;;6.05;1.60;;;16.00;99.90;;;;;;5050022;28;20045;-79
2023/10/03 09:26:47;;;;;;;8.35;1.95;;;16.00;99.90;;;;;;5057872;28;20045;-80
2023/10/03 09:29:30;;;;;;;5.95;2.00;;;16.10;99.90;;;;;;5045926;28;20057;-80
2023/10/03 09:32:19;;;;;;;7.05;1.45;;;16.00;99.90;;;;;;5035962;28;20084;-81
2023/10/03 09:34:56;;;;;;;5.82;1.40;;;16.00;99.90;;;;;;5046383;28;20037;-79
2023/10/03 09:37:29;;;;;;;4.68;1.20;;;15.90;99.90;;;;;;5047779;28;20048;-79
2023/10/03 09:40:16;;;;;;;9.27;1.17;;;15.90;99.90;;;;;;5056521;28;20048;-78
2023/10/03 09:42:48;;;;;;;6.63;1.30;;;15.90;99.90;;;;;;5031028;28;20060;-80
2023/10/03 09:45:26;;;;;;;4.32;1.30;;;15.90;99.90;;;;;;5042321;28;20069;-77
2023/10/03 09:48:05;;;;;;;5.00;1.08;;;15.90;99.90;;;;;;5042366;28;20033;-78
2023/10/03 09:50:31;;;;;;;3.88;1.23;;;15.90;99.90;;;;;;5061941;28;20057;-81
2023/10/03 09:53:01;;;;;;;6.45;1.20;;;15.70;99.90;;;;;;5057141;28;20046;-79
2023/10/03 09:55:41;;;;;;;5.97;1.40;;;15.70;99.90;;;;;;5037619;28;20064;-81
2023/10/03 09:58:07;;;;;;;5.57;1.23;;;15.70;99.90;;;;;;5062549;28;20090;-80
2023/10/03 10:00:41;;;;;;;3.55;1.17;;;15.60;99.90;;;;;;5061523;28;20052;-79
2023/10/03 10:03:26;;;;;;;8.38;1.63;;;15.60;99.90;;;;;;5062645;28;20120;-81
2023/10/03 10:06:28;;;;;;;6.07;1.50;;;15.60;99.90;;;;;;5052943;28;20049;-80
2023/10/03 10:09:04;;;;;;;3.30;1.05;;;15.60;99.90;;;;;;5052977;28;20116;-80
2023/10/03 10:11:30;;;;;;;4.00;0.85;;;15.60;99.90;;;;;;5030569;28;20376;-81
2023/10/03 10:14:16;;;;;;;4.35;1.40;;;15.60;99.90;;;;;;5059295;28;20051;-80
2023/10/03 10:17:04;;;;;;;5.25;1.20;;;15.60;99.90;;;;;;5060893;28;20120;-80
2023/10/03 10:20:27;;;;;;;6.07;1.58;;;15.60;99.90;;;;;;5052674;28;20433;-80
2023/10/03 10:23:01;;;;;;;5.03;1.40;;;15.40;99.90;;;;;;5041189;28;20052;-81
2023/10/03 10:25:30;;;;;;;5.88;1.42;;;15.30;99.90;;;;;;5061005;28;20053;-79
2023/10/03 10:28:06;;;;;;;9.20;1.38;;;15.30;99.90;;;;;;5062841;28;20570;-79
2023/10/03 10:30:36;;;;;;;8.88;1.67;;;15.20;99.90;;;;;;5060266;28;20418;-80
2023/10/03 10:33:22;;;;;;;8.02;1.65;;;15.20;99.90;;;;;;5059856;28;20091;-80
2023/10/03 10:36:03;;;;;;;8.95;2.05;;;15.20;99.90;;;;;;5057832;28;20049;-79
2023/10/03 10:38:31;;;;;;;7.95;2.08;;;15.30;99.90;;;;;;5059379;28;20071;-79
2023/10/03 10:41:17;;;;;;;7.07;1.58;;;15.30;99.90;;;;;;5059132;28;20124;-80
2023/10/03 10:44:09;;;;;;;6.75;1.88;;;15.30;99.90;;;;;;5042055;28;20049;-80
2023/10/03 10:46:42;;;;;;;10.43;2.35;;;15.40;99.90;;;;;;5044557;28;20550;-80
2023/10/03 10:49:40;;;;;;;7.03;2.33;;;15.40;99.90;;;;;;5042489;28;20435;-80
2023/10/03 10:52:10;;;;;;;8.05;2.50;;;15.50;99.90;;;;;;5040671;28;20053;-80
2023/10/03 10:54:42;;;;;;;10.10;2.50;;;15.50;99.90;;;;;;5041169;28;20037;-80
2023/10/03 10:57:16;;;;;;;7.93;2.50;;;15.60;99.90;;;;;;5025195;28;20056;-78
2023/10/03 10:59:43;;;;;;;10.73;3.15;;;15.60;99.90;;;;;;5058442;28;20045;-81
2023/10/03 11:02:19;;;;;;;11.68;2.90;;;15.60;99.90;;;;;;5041186;28;20069;-80
2023/10/03 11:04:58;;;;;;;11.13;2.70;;;15.60;99.90;;;;;;5047411;28;20091;-80
2023/10/03 11:07:31;;;;;;;11.20;2.95;;;15.60;99.90;;;;;;5037707;28;20460;-79
2023/10/03 11:10:07;;;;;;;11.52;2.58;;;15.60;99.90;;;;;;5038013;28;20463;-79
2023/10/03 11:12:35;;;;;;;8.98;2.88;;;15.70;99.90;;;;;;5038019;28;20052;-79
2023/10/03 11:15:01;;;;;;;11.95;2.85;;;15.60;99.90;;;;;;5042751;28;20049;-79
2023/10/03 11:17:28;;;;;;;15.57;3.30;;;15.60;99.90;;;;;;5054481;28;20045;-80
2023/10/03 11:20:00;;;;;;;15.40;4.18;;;15.60;99.90;;;;;;5055251;28;20053;-81
2023/10/03 11:22:26;;;;;;;7.35;2.58;;;15.60;99.90;;;;;;5047314;28;20040;-80
2023/10/03 11:24:58;;;;;;;8.55;2.97;;;15.70;99.90;;;;;;5060360;28;20053;-81
2023/10/03 11:27:31;;;;;;;9.38;2.90;;;15.60;99.90;;;;;;5061079;28;20535;-81
2023/10/03 11:29:57;;;;;;;11.15;3.42;;;15.60;99.90;;;;;;5065651;28;20133;-80
2023/10/03 11:32:33;;;;;;;10.18;3.10;;;15.60;99.90;;;;;;5065515;28;20053;-80
2023/10/03 11:35:17;;;;;;;7.35;3.13;;;15.50;99.90;;;;;;5029241;28;20045;-79
2023/10/03 11:37:44;;;;;;;10.18;2.80;;;15.60;99.90;;;;;;5055380;28;20521;-80
2023/10/03 11:40:20;;;;;;;13.95;2.95;;;15.70;99.90;;;;;;5064408;28;20045;-81
2023/10/03 11:42:55;;;;;;;11.60;3.03;;;15.70;99.90;;;;;;5049634;28;20403;-80
2023/10/03 11:45:28;;;;;;;9.38;2.65;;;15.80;99.90;;;;;;5043255;28;20350;-79
2023/10/03 11:48:00;;;;;;;12.93;4.22;;;15.80;99.90;;;;;;5045582;28;20120;-78
2023/10/03 11:50:27;;;;;;;10.00;2.90;;;15.90;99.90;;;;;;5044719;28;20047;-80
2023/10/03 11:52:57;;;;;;;10.23;2.83;;;15.90;99.90;;;;;;5063717;28;20052;-81
2023/10/03 11:55:23;;;;;;;15.35;2.83;;;15.90;99.90;;;;;;5045460;28;20119;-80
2023/10/03 11:57:50;;;;;;;8.88;3.08;;;15.90;99.90;;;;;;5045186;28;20158;-78
2023/10/03 12:00:16;;;;;;;9.38;2.72;;;15.90;99.90;;;;;;5058014;28;20041;-81
2023/10/03 12:02:45;;;;;;;10.48;3.33;;;15.90;99.90;;;;;;5024600;28;20178;-79
2023/10/03 12:05:14;;;;;;;9.95;2.63;;;15.90;99.90;;;;;;5007333;28;20056;-81
2023/10/03 12:07:45;;;;;;;11.73;2.65;;;15.80;99.90;;;;;;5043287;28;20048;-81
2023/10/03 12:10:12;;;;;;;8.38;2.67;;;15.80;99.90;;;;;;5061115;28;20510;-81
2023/10/03 12:12:42;;;;;;;12.10;2.85;;;15.80;99.90;;;;;;5063504;28;20041;-79
2023/10/03 12:15:12;;;;;;;12.20;2.70;;;15.70;99.90;;;;;;5067745;28;20066;-81
2023/10/03 12:17:39;;;;;;;12.18;3.42;;;15.60;99.90;;;;;;5062751;28;20107;-80
2023/10/03 12:20:14;;;;;;;13.65;3.20;;;15.50;99.90;;;;;;5053438;28;20040;-79
2023/10/03 12:22:45;;;;;;;11.23;2.90;;;15.40;99.90;;;;;;5070966;28;20057;-80
2023/10/03 12:25:12;;;;;;;14.05;3.08;;;15.30;99.90;;;;;;5052490;28;20040;-80
2023/10/03 12:27:41;;;;;;;8.98;2.78;;;15.30;99.90;;;;;;5041747;28;20056;-81
2023/10/03 12:30:10;;;;;;;11.80;3.08;;;15.30;99.90;;;;;;5030990;28;20068;-81
2023/10/03 12:32:38;;;;;;;13.93;3.60;;;15.20;99.90;;;;;;5066891;28;20045;-84
2023/10/03 12:35:05;;;;;;;11.15;2.83;;;15.20;99.90;;;;;;5050207;28;20037;-82
2023/10/03 12:37:35;;;;;;;9.93;2.80;;;15.20;99.90;;;;;;5017199;28;20077;-86
2023/10/03 12:40:13;;;;;;;8.38;2.90;;;15.30;99.90;;;;;;5033805;28;20109;-83
2023/10/03 12:42:50;;;;;;;11.70;2.90;;;15.40;99.90;;;;;;5047323;28;20053;-83
2023/10/03 12:45:24;;;;;;;9.90;3.67;;;15.40;99.90;;;;;;5063530;28;20053;-82
2023/10/03 12:47:54;;;;;;;11.23;2.58;;;15.50;99.90;;;;;;5058277;28;20057;-82
2023/10/03 12:50:23;;;;;;;10.25;3.05;;;15.60;99.90;;;;;;5034809;28;20068;-84
2023/10/03 12:52:53;;;;;;;16.00;3.03;;;15.60;99.90;;;;;;5066750;28;20051;-83
2023/10/03 12:55:19;;;;;;;11.23;2.65;;;15.60;99.90;;;;;;5051302;28;20059;-81